Time;durP1;ratioP1;P1;durP2;ratioP2;P2;SDS_P1;SDS_P2;PMS_P1;PMS_P2;Temp;Humidity;BMP_temperature;BMP_pressure;BME280_temperature;BME280_humidity;BME280_pressure;Samples;Min_cycle;Max_cycle;Signal;HPM_P1;HPM_P2
2023/01/07 00:40:19;;;;;;;8.15;5.43;;;;;;;7.60;60.87;101864.59;5057425;28;20500;-88
2023/01/07 00:43:03;;;;;;;8.48;5.40;;;;;;;7.56;61.91;101857.75;5026161;28;20053;-84
2023/01/07 00:45:33;;;;;;;7.28;4.55;;;;;;;7.55;60.95;101854.25;5023787;28;20114;-85
2023/01/07 00:47:59;;;;;;;7.55;5.40;;;;;;;7.47;61.22;101842.38;4999676;28;20041;-85
2023/01/07 00:50:32;;;;;;;8.18;5.50;;;;;;;7.41;61.35;101849.03;5007824;28;20030;-87
2023/01/07 00:52:57;;;;;;;8.07;5.63;;;;;;;7.55;61.19;101840.84;5038149;28;20044;-87
2023/01/07 00:55:37;;;;;;;7.38;5.43;;;;;;;7.39;60.70;101834.91;5021360;28;20046;-87
2023/01/07 00:58:04;;;;;;;7.80;5.10;;;;;;;7.54;60.58;101859.72;5026790;28;20039;-84
2023/01/07 01:00:31;;;;;;;7.32;5.50;;;;;;;7.55;60.55;101872.13;5017923;28;20037;-86
2023/01/07 01:02:58;;;;;;;6.68;5.03;;;;;;;7.33;60.44;101828.22;5013667;28;20042;-87
2023/01/07 01:05:47;;;;;;;8.18;5.70;;;;;;;7.27;60.87;101825.13;5035283;28;20076;-86
2023/01/07 01:08:22;;;;;;;8.18;5.65;;;;;;;7.38;61.28;101844.78;5031632;28;20041;-88
2023/01/07 01:10:48;;;;;;;7.32;5.38;;;;;;;7.47;61.51;101853.09;5017416;28;20049;-85
2023/01/07 01:13:17;;;;;;;7.32;4.97;;;;;;;7.50;60.75;101859.06;5020064;28;20548;-86
2023/01/07 01:15:44;;;;;;;8.38;5.00;;;;;;;7.59;60.59;101854.88;5009766;28;20034;-85
2023/01/07 01:18:10;;;;;;;6.82;4.75;;;;;;;7.57;60.07;101855.00;5001924;28;20094;-86
2023/01/07 01:20:36;;;;;;;7.57;5.28;;;;;;;7.56;60.87;101857.75;5016871;28;20152;-87
2023/01/07 01:23:23;;;;;;;9.63;5.43;;;;;;;7.65;61.07;101865.13;5006399;28;20041;-90
2023/01/07 01:25:50;;;;;;;7.80;5.38;;;;;;;7.61;61.14;101844.94;5031232;28;20406;-86
2023/01/07 01:28:20;;;;;;;10.45;5.32;;;;;;;7.69;61.07;101857.75;5007661;28;20045;-85
2023/01/07 01:30:57;;;;;;;7.40;4.93;;;;;;;7.59;60.63;101852.22;5020269;28;20061;-90
2023/01/07 01:33:25;;;;;;;7.32;4.75;;;;;;;7.77;60.21;101856.22;4985490;28;20478;-85
2023/01/07 01:35:52;;;;;;;7.85;5.00;;;;;;;7.69;60.39;101845.19;5013244;28;20025;-88
2023/01/07 01:38:18;;;;;;;7.47;4.88;;;;;;;7.76;60.48;101854.47;4994741;28;20054;-87
2023/01/07 01:40:45;;;;;;;7.20;4.93;;;;;;;7.75;60.16;101858.16;5014144;28;20045;-88
2023/01/07 01:43:30;;;;;;;7.22;5.25;;;;;;;7.94;60.31;101872.84;5015078;28;20119;-88
2023/01/07 01:46:03;;;;;;;9.60;5.15;;;;;;;7.77;60.66;101833.91;5013546;28;20034;-87
2023/01/07 01:48:36;;;;;;;6.78;4.72;;;;;;;7.88;60.45;101854.53;5021710;28;20474;-88
2023/01/07 01:51:03;;;;;;;6.32;4.78;;;;;;;7.89;60.70;101849.09;5021009;28;20117;-88
2023/01/07 01:53:32;;;;;;;6.88;4.72;;;;;;;7.79;60.67;101830.16;5013506;28;20093;-86
2023/01/07 01:55:59;;;;;;;7.22;5.00;;;;;;;7.64;61.03;101819.75;5001966;28;20065;-86
2023/01/07 01:58:39;;;;;;;6.55;4.82;;;;;;;7.83;61.37;101836.16;5027983;28;20072;-84
2023/01/07 02:01:05;;;;;;;7.57;4.80;;;;;;;7.83;61.34;101828.97;4995720;28;20105;-84
2023/01/07 02:03:37;;;;;;;9.95;4.82;;;;;;;7.97;60.80;101846.69;5008992;28;20054;-88
2023/01/07 02:06:05;;;;;;;11.20;4.93;;;;;;;7.81;60.76;101813.97;5018720;28;20173;-88
2023/01/07 02:08:34;;;;;;;7.68;4.50;;;;;;;7.76;60.64;101797.41;5021216;28;20479;-87
2023/01/07 02:11:22;;;;;;;8.05;4.60;;;;;;;7.95;61.08;101832.53;5019707;28;20068;-86
2023/01/07 02:14:25;;;;;;;7.95;4.60;;;;;;;8.03;60.96;101840.03;5008012;28;20045;-88
2023/01/07 02:17:01;;;;;;;7.60;4.43;;;;;;;7.97;61.23;101853.88;5010156;28;20042;-90
2023/01/07 02:20:07;;;;;;;6.40;4.50;;;;;;;7.84;61.64;101848.56;5018378;28;20036;-90
2023/01/07 02:23:05;;;;;;;8.57;4.18;;;;;;;7.85;61.72;101841.41;5010306;28;20065;-89
2023/01/07 02:26:05;;;;;;;6.53;4.53;;;;;;;7.71;62.23;101835.25;5028989;28;20050;-89
2023/01/07 02:28:58;;;;;;;7.38;4.13;;;;;;;7.68;62.55;101831.91;5010397;28;20049;-89
2023/01/07 02:32:02;;;;;;;6.80;4.38;;;;;;;7.56;63.24;101836.34;5004356;28;20060;-90
2023/01/07 02:34:49;;;;;;;6.27;3.90;;;;;;;7.43;63.62;101841.75;5011773;28;20101;-88
2023/01/07 02:37:57;;;;;;;8.43;4.10;;;;;;;7.37;63.95;101842.19;5012900;28;20316;-87
2023/01/07 02:43:13;;;;;;;8.45;4.65;;;;;;;7.27;64.61;101841.16;5042661;28;20037;-87
2023/01/07 02:46:22;;;;;;;12.00;4.35;;;;;;;7.17;65.28;101835.63;5029934;28;20041;-89
2023/01/07 02:48:53;;;;;;;6.57;4.47;;;;;;;7.03;65.79;101822.41;5041639;28;20343;-88
2023/01/07 02:51:37;;;;;;;6.18;4.10;;;;;;;7.08;66.16;101828.25;5022138;28;20044;-88
2023/01/07 02:54:27;;;;;;;5.68;3.97;;;;;;;7.10;66.27;101823.66;5028785;28;20033;-88
2023/01/07 02:57:31;;;;;;;6.75;3.88;;;;;;;7.08;66.24;101831.78;5024669;28;20041;-89
2023/01/07 03:00:31;;;;;;;7.22;3.97;;;;;;;7.01;66.45;101818.97;5035531;28;20041;-89
2023/01/07 03:03:07;;;;;;;8.20;4.55;;;;;;;6.84;67.18;101813.00;5047778;28;20085;-90
2023/01/07 03:06:08;;;;;;;6.47;4.05;;;;;;;6.71;67.18;101790.75;5042809;28;20203;-88
2023/01/07 03:09:05;;;;;;;5.28;3.92;;;;;;;6.86;67.63;101816.44;4993552;28;20140;-88
2023/01/07 03:12:21;;;;;;;5.18;3.70;;;;;;;6.84;67.74;101814.81;5040752;28;20042;-87
2023/01/07 03:15:05;;;;;;;10.93;4.32;;;;;;;6.61;67.89;101795.06;5029998;28;20041;-87
2023/01/07 03:18:21;;;;;;;6.30;4.22;;;;;;;6.69;68.31;101820.25;5041649;28;20041;-88
2023/01/07 03:21:01;;;;;;;7.00;3.90;;;;;;;6.72;68.21;101825.41;5045316;28;20076;-89
2023/01/07 03:23:29;;;;;;;5.47;3.85;;;;;;;6.61;68.74;101803.06;5048624;28;20034;-89
2023/01/07 03:26:00;;;;;;;6.45;4.30;;;;;;;6.66;68.82;101831.19;5033342;28;20111;-89
2023/01/07 03:28:31;;;;;;;7.72;4.00;;;;;;;6.58;69.09;101816.63;5031179;28;20092;-91
2023/01/07 03:30:59;;;;;;;7.15;4.28;;;;;;;6.50;69.04;101807.34;5024461;28;20124;-89
2023/01/07 03:33:46;;;;;;;5.70;3.78;;;;;;;6.63;69.21;101830.56;5035170;28;20072;-88
2023/01/07 03:36:12;;;;;;;7.22;4.15;;;;;;;6.54;69.08;101834.72;5030278;28;20048;-90
2023/01/07 03:38:37;;;;;;;;;;;;;;;6.49;69.50;101832.34;5012828;28;20056;-86
2023/01/07 03:41:06;;;;;;;9.70;5.10;;;;;;;6.34;69.99;101817.38;5033224;28;19905;-88
2023/01/07 03:43:34;;;;;;;8.02;4.28;;;;;;;6.39;69.96;101839.31;5037542;28;20037;-87
2023/01/07 03:46:03;;;;;;;7.57;3.78;;;;;;;6.31;70.00;101822.94;5024219;28;20038;-87
2023/01/07 03:48:34;;;;;;;5.82;4.10;;;;;;;6.36;69.74;101826.13;5045331;28;20041;-88
2023/01/07 03:51:34;;;;;;;7.65;4.82;;;;;;;6.41;69.98;101837.34;5050682;28;20038;-87
2023/01/07 03:54:08;;;;;;;11.80;5.10;;;;;;;6.41;70.06;101841.84;5037030;28;20064;-88
2023/01/07 03:56:34;;;;;;;8.80;4.95;;;;;;;6.37;70.02;101830.53;5033385;28;20033;-86
2023/01/07 03:59:02;;;;;;;9.30;4.78;;;;;;;6.20;70.07;101809.44;5045253;28;20092;-89
2023/01/07 04:01:50;;;;;;;7.78;4.50;;;;;;;6.26;70.20;101819.72;5045136;28;20046;-88
2023/01/07 04:04:18;;;;;;;9.23;4.82;;;;;;;6.17;70.20;101812.34;5037381;28;20055;-88
2023/01/07 04:07:10;;;;;;;7.82;4.53;;;;;;;6.28;70.31;101833.84;5030678;28;20060;-91
2023/01/07 04:10:09;;;;;;;9.50;4.60;;;;;;;6.20;70.60;101837.00;5042583;28;20117;-90
2023/01/07 04:12:42;;;;;;;9.95;4.80;;;;;;;6.12;70.73;101837.53;5031918;28;20037;-89
2023/01/07 04:15:15;;;;;;;8.18;4.43;;;;;;;6.09;70.89;101832.41;5047748;28;20069;-88
2023/01/07 04:18:02;;;;;;;9.13;4.57;;;;;;;6.01;70.81;101824.03;5047859;28;20064;-89
2023/01/07 04:20:54;;;;;;;8.75;4.97;;;;;;;5.89;70.97;101808.81;5032848;28;20042;-89
2023/01/07 04:23:28;;;;;;;7.10;4.25;;;;;;;5.85;71.00;101823.31;5030324;28;20048;-91
2023/01/07 04:26:20;;;;;;;9.43;4.82;;;;;;;5.84;71.23;101827.81;5054315;28;20085;-91
2023/01/07 04:28:47;;;;;;;7.85;4.60;;;;;;;5.83;71.38;101834.13;5049933;28;20048;-91
2023/01/07 04:31:21;;;;;;;8.27;4.32;;;;;;;5.64;71.71;101809.56;5017338;28;20493;-90
2023/01/07 04:33:51;;;;;;;6.43;3.90;;;;;;;5.85;71.83;101834.88;5030715;28;20048;-89
2023/01/07 04:36:22;;;;;;;12.25;4.22;;;;;;;5.77;71.77;101833.66;5049952;28;20052;-88
2023/01/07 04:39:11;;;;;;;9.02;4.03;;;;;;;5.75;71.85;101816.88;5031492;28;20044;-89
2023/01/07 04:56:56;;;;;;;15.27;7.47;;;;;;;5.53;73.02;101825.47;5060834;28;19988;-90
2023/01/07 04:59:29;;;;;;;17.83;8.13;;;;;;;5.61;72.96;101844.47;5053052;28;20068;-88
2023/01/07 05:02:04;;;;;;;21.50;8.15;;;;;;;5.55;72.71;101829.72;5053118;28;20049;-87
2023/01/07 05:04:33;;;;;;;16.85;7.60;;;;;;;5.35;72.92;101809.66;5042900;28;20041;-89
2023/01/07 05:07:01;;;;;;;13.68;7.05;;;;;;;5.45;73.20;101823.25;5047591;28;20446;-86
2023/01/07 05:09:35;;;;;;;14.70;7.10;;;;;;;5.46;73.37;101833.00;5033015;28;20037;-85
2023/01/07 05:12:17;;;;;;;14.98;7.30;;;;;;;5.42;73.35;101820.81;5032952;28;20045;-89
2023/01/07 05:14:59;;;;;;;16.48;6.38;;;;;;;5.49;73.10;101835.47;5035750;28;20039;-89
2023/01/07 05:17:26;;;;;;;14.13;6.13;;;;;;;5.31;73.15;101812.63;5072725;28;20052;-87
2023/01/07 05:20:14;;;;;;;14.75;6.65;;;;;;;5.35;73.34;101830.16;5041242;28;20033;-88
2023/01/07 05:22:42;;;;;;;11.77;6.95;;;;;;;5.39;73.32;101829.00;5042404;28;20041;-90
2023/01/07 05:25:18;;;;;;;20.95;8.70;;;;;;;5.22;73.65;101816.75;5072671;28;20080;-89
2023/01/07 05:27:56;;;;;;;16.92;9.73;;;;;;;5.24;73.53;101818.38;5051910;28;20037;-84
2023/01/07 05:30:28;;;;;;;17.17;9.10;;;;;;;5.32;73.60;101838.38;5028885;28;20567;-87
2023/01/07 05:32:55;;;;;;;17.35;9.07;;;;;;;5.08;73.86;101818.50;5042444;28;20045;-89
2023/01/07 05:35:25;;;;;;;15.90;9.30;;;;;;;4.96;74.30;101813.06;5046690;28;20037;-88
2023/01/07 05:37:57;;;;;;;20.23;9.60;;;;;;;5.08;74.22;101833.63;5041903;28;20034;-89
2023/01/07 05:40:30;;;;;;;18.63;9.63;;;;;;;5.12;74.46;101832.47;5038624;28;20044;-89
2023/01/07 05:42:56;;;;;;;21.73;8.85;;;;;;;5.16;74.37;101847.31;5043135;28;20064;-88
2023/01/07 05:45:24;;;;;;;15.85;7.82;;;;;;;5.07;74.24;101832.75;5035055;28;20104;-89
2023/01/07 05:47:52;;;;;;;14.48;7.03;;;;;;;4.92;74.40;101803.56;5063587;28;20044;-90
2023/01/07 05:50:18;;;;;;;21.77;6.82;;;;;;;5.04;74.34;101816.13;5028013;28;20033;-88
2023/01/07 05:52:48;;;;;;;14.60;6.32;;;;;;;5.02;73.89;101812.69;5043747;28;20040;-89
2023/01/07 05:55:24;;;;;;;13.57;6.90;;;;;;;5.18;73.86;101837.41;5039093;28;20036;-89
2023/01/07 05:57:52;;;;;;;11.25;6.70;;;;;;;5.09;73.75;101819.34;5034904;28;20034;-89
2023/01/07 06:00:19;;;;;;;15.65;6.38;;;;;;;5.07;73.75;101818.56;5007548;28;20038;-88
2023/01/07 06:02:46;;;;;;;12.93;7.53;;;;;;;5.13;73.97;101826.19;5034802;28;20033;-88
2023/01/07 06:05:12;;;;;;;13.10;8.07;;;;;;;5.10;74.11;101823.69;5039094;28;20041;-87
2023/01/07 06:07:38;;;;;;;16.67;8.50;;;;;;;5.12;74.12;101829.81;5023777;28;20111;-88
2023/01/07 06:10:09;;;;;;;25.80;9.15;;;;;;;5.29;74.01;101853.59;5019488;28;20042;-89
2023/01/07 06:12:39;;;;;;;18.23;9.07;;;;;;;5.26;73.86;101848.44;5030347;28;20072;-89
2023/01/07 06:15:38;;;;;;;16.52;8.98;;;;;;;5.33;74.00;101850.72;5028569;28;20162;-89
2023/01/07 06:18:12;;;;;;;26.83;10.57;;;;;;;5.43;73.76;101870.50;5043284;28;20037;-88
2023/01/07 06:20:42;;;;;;;17.52;9.40;;;;;;;5.24;73.70;101823.72;5043066;28;20049;-89
2023/01/07 06:23:20;;;;;;;20.75;8.05;;;;;;;5.36;74.07;101839.84;5012002;28;20049;-88
2023/01/07 06:26:03;;;;;;;20.35;8.23;;;;;;;5.67;73.89;101858.28;5031735;28;20033;-89
2023/01/07 06:35:21;;;;;;;22.95;8.52;;;;;;;5.69;73.99;101864.38;5050771;28;20032;-86
2023/01/07 06:38:29;;;;;;;25.50;9.40;;;;;;;5.87;73.83;101874.78;5049537;28;20106;-88
2023/01/07 06:41:46;;;;;;;21.45;9.77;;;;;;;5.88;74.03;101865.84;5047192;28;20087;-88
2023/01/07 06:45:02;;;;;;;24.58;10.90;;;;;;;5.98;73.92;101861.63;5051571;28;20072;-88
2023/01/07 06:48:12;;;;;;;24.33;11.07;;;;;;;5.84;73.70;101827.81;5032699;28;20038;-88
2023/01/07 06:50:45;;;;;;;34.25;14.23;;;;;;;6.00;73.55;101841.03;5032343;28;20034;-89
2023/01/07 06:53:18;;;;;;;34.90;14.57;;;;;;;6.10;73.21;101833.25;5053392;28;20100;-89
2023/01/07 07:37:46;;;;;;;7.22;4.70;;;;;;;19.06;37.52;101836.75;5049668;28;20052;-90
2023/01/07 07:40:13;;;;;;;10.38;5.43;;;;;;;20.12;35.31;101839.06;5035211;28;20469;-89
2023/01/07 07:42:41;;;;;;;13.40;5.10;;;;;;;21.06;32.96;101838.75;5050390;28;20053;-89
2023/01/07 07:45:24;;;;;;;12.52;7.30;;;;;;;21.96;31.70;101820.38;5092458;23;20061;-92
2023/01/07 07:47:51;;;;;;;17.45;8.00;;;;;;;22.74;30.47;101838.94;4970355;28;20506;-89
2023/01/07 07:50:30;;;;;;;11.30;6.30;;;;;;;23.54;28.81;101822.22;4965343;28;20057;-88
2023/01/07 07:52:58;;;;;;;21.25;9.40;;;;;;;24.40;27.71;101827.16;4958481;28;20046;-89
2023/01/07 07:55:29;;;;;;;20.90;8.35;;;;;;;25.01;26.05;101816.44;4945989;28;20047;-90
2023/01/07 07:57:55;;;;;;;23.30;8.73;;;;;;;25.75;25.61;101828.19;4964054;28;20065;-88
2023/01/07 08:05:27;;;;;;;12.52;7.63;;;;;;;27.14;23.26;101791.88;5083803;23;19924;-92
2023/01/07 08:08:18;;;;;;;16.83;8.63;;;;;;;27.72;22.34;101800.19;5028476;28;20050;-90
2023/01/07 08:10:45;;;;;;;23.65;10.50;;;;;;;27.98;21.95;101796.81;5029911;28;20089;-88
2023/01/07 08:13:35;;;;;;;20.98;8.25;;;;;;;28.01;21.74;101783.59;5042891;28;20040;-87
2023/01/07 08:16:03;;;;;;;21.13;8.50;;;;;;;28.30;21.65;101809.22;5036597;28;20052;-89
2023/01/07 08:18:32;;;;;;;17.92;7.90;;;;;;;28.37;21.61;101810.72;5032619;23;20097;-88
2023/01/07 08:21:19;;;;;;;20.00;7.30;;;;;;;28.65;21.44;101811.72;5014025;28;20166;-89
2023/01/07 08:23:45;;;;;;;19.08;7.78;;;;;;;28.69;20.88;101812.91;4988936;28;20074;-89
2023/01/07 08:26:43;;;;;;;16.27;7.72;;;;;;;28.48;20.92;101810.94;5012080;28;20110;-87
2023/01/07 08:29:26;;;;;;;11.18;5.88;;;;;;;28.70;21.05;101813.72;5016904;28;20034;-89
2023/01/07 08:32:31;;;;;;;10.23;6.00;;;;;;;29.59;19.78;101820.97;5011432;28;20102;-90
2023/01/07 08:34:58;;;;;;;9.45;5.68;;;;;;;29.12;19.99;101814.03;4994902;28;20042;-87
2023/01/07 08:37:25;;;;;;;8.40;3.85;;;;;;;28.76;19.98;101813.53;5007811;28;20065;-89
2023/01/07 08:40:04;;;;;;;9.95;4.72;;;;;;;29.34;20.11;101802.16;5004750;28;20149;-87
2023/01/07 08:43:00;;;;;;;8.80;4.18;;;;;;;29.48;19.79;101808.09;5013802;28;20069;-88
2023/01/07 08:48:29;;;;;;;9.40;5.90;;;;;;;30.62;18.58;101792.22;5025133;22;20050;-92
2023/01/07 08:58:06;;;;;;;5.60;4.00;;;;;;;30.08;18.75;101793.19;5063476;23;20029;-90
2023/01/07 09:01:06;;;;;;;8.35;4.60;;;;;;;30.59;18.59;101773.34;5046722;28;20037;-89
2023/01/07 09:03:34;;;;;;;7.13;4.57;;;;;;;30.25;18.45;101779.16;5029117;28;20038;-89
2023/01/07 09:06:04;;;;;;;11.68;5.68;;;;;;;30.33;18.21;101778.72;5038724;28;20113;-91
2023/01/07 09:08:32;;;;;;;11.07;6.13;;;;;;;30.92;17.70;101761.84;5051871;23;20073;-91
2023/01/07 09:10:59;;;;;;;13.27;5.50;;;;;;;31.32;17.47;101762.28;5054968;22;20067;-90
2023/01/07 09:13:32;;;;;;;11.75;4.88;;;;;;;31.55;17.46;101780.41;4991832;28;20052;-88
2023/01/07 09:38:15;;;;;;;7.63;3.63;;;;;;;32.34;16.83;101714.25;5694094;23;20046;-88
2023/01/07 09:40:57;;;;;;;9.43;3.60;;;;;;;32.75;16.63;101702.97;5010818;28;20125;-89
2023/01/07 09:43:41;;;;;;;9.43;3.75;;;;;;;32.43;16.35;101709.75;5096276;23;20041;-86
2023/01/07 09:46:08;;;;;;;5.93;3.28;;;;;;;32.54;15.90;101711.41;5084659;23;20118;-86
2023/01/07 09:48:36;;;;;;;7.32;3.95;;;;;;;32.06;16.60;101727.63;5097591;23;20077;31
2023/01/07 09:54:36;;;;;;;9.73;3.60;;;;;;;32.06;15.64;101710.94;5091220;22;20126;-89
2023/01/07 09:57:07;;;;;;;8.15;4.32;;;;;;;32.06;15.47;101687.88;4987261;28;20142;-88
2023/01/07 09:59:40;;;;;;;7.68;4.15;;;;;;;32.97;14.75;101705.38;4990892;28;20038;-84
2023/01/07 10:03:01;;;;;;;9.25;3.70;;;;;;;34.09;13.73;101698.19;5036431;23;20051;-88
2023/01/07 10:06:04;;;;;;;11.02;4.05;;;;;;;33.95;13.54;101692.44;4931856;29;20071;-89
2023/01/07 10:14:43;;;;;;;8.52;4.20;;;;;;;34.77;13.05;101690.69;5378738;22;20038;-90
2023/01/07 10:20:36;;;;;;;;;;;;;;;;;;;;;
2023/01/07 10:23:26;;;;;;;10.45;4.90;;;;;;;33.95;13.26;101649.75;5206886;23;20109;-96
2023/01/07 10:26:07;;;;;;;7.10;4.32;;;;;;;33.71;13.26;101642.16;5009259;28;20072;-88
2023/01/07 10:31:31;;;;;;;11.95;5.03;;;;;;;32.86;14.14;101636.94;5526677;22;20142;-93
2023/01/07 10:34:03;;;;;;;9.95;5.25;;;;;;;30.54;15.80;101640.94;4976990;28;20050;-89
2023/01/07 10:36:44;;;;;;;13.20;5.97;;;;;;;29.34;16.89;101630.44;4975761;28;20029;-91
2023/01/07 10:48:38;;;;;;;9.32;5.43;;;;;;;26.60;19.43;101636.81;5813148;23;20042;31
2023/01/07 10:51:22;;;;;;;7.20;4.80;;;;;;;25.55;20.76;101651.44;4970057;28;20087;-86
2023/01/07 10:54:09;;;;;;;9.98;5.00;;;;;;;24.47;21.82;101655.84;5000367;28;20057;-88
2023/01/07 10:56:45;;;;;;;7.35;5.20;;;;;;;24.00;22.45;101637.97;4987903;28;20034;-86
2023/01/07 10:59:13;;;;;;;;;;;;;;;24.98;21.37;101641.69;4956836;28;20135;-88
2023/01/07 11:01:46;;;;;;;7.32;4.93;;;;;;;25.55;20.87;101629.41;4990093;28;19932;-87
2023/01/07 11:04:13;;;;;;;8.73;4.90;;;;;;;25.92;20.05;101634.72;4959615;28;20069;-86
2023/01/07 11:06:43;;;;;;;8.55;4.88;;;;;;;26.68;19.71;101625.38;4954522;28;20118;-88
2023/01/07 11:09:34;;;;;;;10.48;5.70;;;;;;;27.82;18.39;101626.31;4989314;28;20070;-88
2023/01/07 11:12:47;;;;;;;11.75;4.88;;;;;;;27.83;18.35;101616.94;4992896;28;20034;-87
2023/01/07 11:15:37;;;;;;;9.82;5.95;;;;;;;27.30;19.04;101605.31;4972445;28;20149;-86
2023/01/07 11:18:40;;;;;;;7.85;5.70;;;;;;;28.30;18.04;101612.91;4959471;28;20097;-88
2023/01/07 11:21:10;;;;;;;8.93;5.00;;;;;;;27.64;18.43;101613.59;4964902;28;20035;-88
2023/01/07 11:23:40;;;;;;;8.48;4.60;;;;;;;28.41;17.96;101606.41;4970698;28;20227;-87
2023/01/07 11:26:27;;;;;;;7.53;5.43;;;;;;;28.14;18.35;101592.50;4950834;28;20071;-87
2023/01/07 11:29:08;;;;;;;6.57;5.13;;;;;;;27.58;19.03;101607.16;4978908;28;20073;-87
2023/01/07 11:31:53;;;;;;;11.75;9.13;;;;;;;27.49;18.88;101594.88;4982449;28;20047;-85
2023/01/07 11:34:59;;;;;;;9.48;5.70;;;;;;;27.01;19.48;101592.63;4977662;28;20456;-86
2023/01/07 11:37:45;;;;;;;8.10;5.07;;;;;;;26.37;19.80;101601.00;4941867;28;20038;-87
2023/01/07 11:40:45;;;;;;;8.48;4.90;;;;;;;25.65;20.47;101596.63;4970350;28;20067;-90
2023/01/07 11:43:38;;;;;;;7.95;5.05;;;;;;;25.76;20.33;101595.78;4981117;28;20114;-86
2023/01/07 11:46:05;;;;;;;9.30;5.10;;;;;;;25.68;20.47;101609.91;4952303;28;20043;-87
2023/01/07 11:48:41;;;;;;;7.35;5.32;;;;;;;25.18;21.37;101585.53;4961690;28;20038;-86
2023/01/07 11:51:21;;;;;;;10.95;5.30;;;;;;;24.87;21.60;101598.47;4976244;28;20089;-88
2023/01/07 11:54:18;;;;;;;9.43;5.68;;;;;;;23.54;23.22;101592.53;4983869;28;20070;-88
2023/01/07 11:56:49;;;;;;;7.53;4.90;;;;;;;23.41;22.97;101569.84;4948431;28;20030;-86
2023/01/07 11:59:30;;;;;;;7.80;5.00;;;;;;;24.18;22.32;101565.69;5238826;22;20053;-87
2023/01/07 12:02:41;;;;;;;7.32;5.03;;;;;;;23.43;23.31;101562.22;5052558;23;20120;-87
2023/01/07 12:05:47;;;;;;;8.15;4.90;;;;;;;23.12;23.25;101573.03;5067521;23;20073;-88
2023/01/07 12:08:21;;;;;;;9.40;5.38;;;;;;;23.15;23.70;101567.09;5101719;23;20053;-88
2023/01/07 12:10:58;;;;;;;8.50;5.03;;;;;;;23.28;23.65;101581.78;5009652;28;20167;-88
2023/01/07 12:13:26;;;;;;;9.50;4.90;;;;;;;22.64;24.38;101554.34;4999819;28;20026;-88
2023/01/07 12:15:58;;;;;;;9.90;5.55;;;;;;;22.52;24.47;101559.69;4981596;28;20034;-90
2023/01/07 12:18:43;;;;;;;9.10;5.05;;;;;;;22.46;24.47;101584.38;5017244;28;20030;-90
2023/01/07 12:21:50;;;;;;;11.15;5.85;;;;;;;21.83;25.47;101574.00;5007195;28;20116;-88
2023/01/07 12:24:43;;;;;;;8.93;5.18;;;;;;;22.07;25.47;101578.75;4991962;28;20068;-88
2023/01/07 12:27:27;;;;;;;8.65;5.13;;;;;;;20.92;26.55;101585.50;5017372;28;20041;-88
2023/01/07 12:30:37;;;;;;;10.40;5.97;;;;;;;19.24;28.86;101576.53;5015857;28;20494;-88
2023/01/07 12:33:29;;;;;;;10.60;4.20;;;;;;;19.53;33.63;101562.75;5023803;28;20072;-88
2023/01/07 12:36:25;;;;;;;7.63;3.47;;;;;;;19.04;36.33;101579.94;5028541;28;20046;-88
2023/01/07 12:39:38;;;;;;;6.72;2.95;;;;;;;18.63;39.11;101574.19;5041861;23;20054;-90
2023/01/07 12:42:13;;;;;;;4.88;3.20;;;;;;;18.57;39.02;101559.50;4990071;28;20058;-87
2023/01/07 12:44:48;;;;;;;6.45;3.17;;;;;;;18.20;39.46;101533.28;4964136;28;20092;-89
2023/01/07 12:47:24;;;;;;;7.60;3.08;;;;;;;18.24;40.58;101559.94;4956975;28;20043;-90
2023/01/07 12:50:15;;;;;;;5.72;3.20;;;;;;;18.26;39.45;101555.13;5123828;23;20418;-90
2023/01/07 12:52:46;;;;;;;6.57;3.30;;;;;;;17.86;40.27;101568.22;5028530;28;20034;-88
2023/01/07 12:55:22;;;;;;;7.38;3.70;;;;;;;18.03;39.35;101559.84;5058564;23;20054;-87
2023/01/07 12:58:30;;;;;;;6.90;3.58;;;;;;;17.88;39.59;101566.13;5035372;23;20141;-89
2023/01/07 13:01:28;;;;;;;6.75;3.25;;;;;;;17.97;40.43;101577.75;5031826;28;20054;-87
2023/01/07 13:04:47;;;;;;;4.18;2.53;;;;;;;17.59;41.81;101574.22;5003177;28;20179;-90
2023/01/07 13:07:44;;;;;;;4.90;2.78;;;;;;;16.81;43.86;101587.06;5025358;28;20038;-88
2023/01/07 13:10:15;;;;;;;5.38;2.90;;;;;;;16.52;44.54;101561.41;5239525;23;20051;-88
2023/01/07 13:12:44;;;;;;;4.95;3.03;;;;;;;16.13;45.88;101565.00;4949622;28;20430;-89
2023/01/07 13:15:15;;;;;;;6.78;3.60;;;;;;;15.69;47.74;101576.28;5243507;23;20047;-89
2023/01/07 13:17:43;;;;;;;4.68;3.00;;;;;;;15.02;49.52;101578.34;4993314;28;20057;-88
2023/01/07 13:20:17;;;;;;;4.95;3.03;;;;;;;14.69;50.67;101583.69;4986920;28;20086;-89
2023/01/07 13:22:51;;;;;;;7.40;2.90;;;;;;;14.38;51.61;101580.72;4961954;28;20050;-89
2023/01/07 13:25:39;;;;;;;5.22;2.95;;;;;;;14.35;51.94;101582.72;4995365;28;20057;-89
2023/01/07 13:28:23;;;;;;;6.15;2.95;;;;;;;14.35;52.10;101592.66;4992432;28;20054;-86
2023/01/07 13:31:18;;;;;;;7.50;3.15;;;;;;;14.14;52.56;101590.38;4995477;28;20054;-90
2023/01/07 13:35:00;;;;;;;4.32;2.55;;;;;;;13.52;53.72;101587.81;4984140;28;20077;-89
2023/01/07 13:38:23;;;;;;;5.85;2.90;;;;;;;13.22;54.13;101595.31;4931830;28;20055;-90
2023/01/07 13:41:13;;;;;;;6.88;3.10;;;;;;;13.14;54.29;101602.50;4991635;28;20034;-92
2023/01/07 13:46:50;;;;;;;4.22;2.47;;;;;;;12.84;56.48;101586.53;5011609;23;20046;-89
2023/01/07 13:49:28;;;;;;;5.88;2.65;;;;;;;12.87;56.84;101597.00;4992436;28;20070;-90
2023/01/07 13:52:23;;;;;;;6.57;3.40;;;;;;;12.76;58.08;101605.34;4992731;28;20062;-91
2023/01/07 13:54:49;;;;;;;5.47;2.90;;;;;;;12.32;59.56;101605.16;4961355;28;20079;-88
2023/01/07 13:57:46;;;;;;;8.18;3.05;;;;;;;12.11;60.68;101599.16;4977326;28;20066;-90
2023/01/07 14:00:38;;;;;;;5.63;3.10;;;;;;;11.95;60.67;101606.00;4994079;28;20050;-86
2023/01/07 14:03:26;;;;;;;14.13;4.20;;;;;;;11.76;60.11;101568.34;5015693;23;20066;-90
2023/01/07 14:06:18;;;;;;;5.05;2.78;;;;;;;11.79;60.04;101606.59;5009995;28;20042;-89
2023/01/07 14:09:04;;;;;;;9.05;3.25;;;;;;;11.50;60.05;101574.34;5034133;23;20063;-88
2023/01/07 14:11:34;;;;;;;6.68;2.88;;;;;;;11.71;60.95;101608.34;5359163;23;20146;-89
2023/01/07 14:17:41;;;;;;;8.18;3.80;;;;;;;11.57;61.18;101613.16;4936534;29;20073;-94
2023/01/07 14:20:52;;;;;;;10.63;3.25;;;;;;;11.35;61.46;101591.94;4935583;29;20059;-90
2023/01/07 14:23:45;;;;;;;7.20;3.28;;;;;;;11.44;62.68;101612.63;4920076;29;20044;-91
2023/01/07 14:26:36;;;;;;;7.72;4.07;;;;;;;11.18;63.74;101617.72;4948405;29;20044;-91
2023/01/07 14:29:20;;;;;;;9.30;3.45;;;;;;;11.04;65.09;101621.69;4988613;23;20063;-90
2023/01/07 14:32:33;;;;;;;4.40;3.03;;;;;;;10.50;66.70;101591.59;5010262;28;20038;-89
2023/01/07 14:35:47;;;;;;;7.72;3.40;;;;;;;10.60;67.06;101607.75;5005930;28;20049;-93
2023/01/07 14:38:37;;;;;;;8.43;4.28;;;;;;;10.34;68.49;101626.19;5030718;28;20050;-89
2023/01/07 14:41:10;;;;;;;10.40;3.97;;;;;;;10.19;69.09;101620.31;5009571;28;20041;-87
2023/01/07 14:44:19;;;;;;;7.90;4.13;;;;;;;10.16;69.44;101617.91;5009485;28;20038;-88
2023/01/07 14:46:46;;;;;;;6.80;3.88;;;;;;;10.14;70.02;101618.03;5030643;28;20046;-91
2023/01/07 14:49:47;;;;;;;6.43;3.75;;;;;;;10.01;70.35;101605.81;5016470;28;20042;-91
2023/01/07 14:52:46;;;;;;;11.82;4.60;;;;;;;9.97;70.72;101617.81;5035282;28;20056;-90
2023/01/07 14:55:43;;;;;;;13.52;6.85;;;;;;;9.93;71.01;101618.09;5091185;22;20021;-88
2023/01/07 14:58:42;;;;;;;16.33;6.57;;;;;;;9.88;71.32;101616.75;5191621;23;20111;-93
2023/01/07 15:01:49;;;;;;;9.38;6.05;;;;;;;9.83;70.95;101606.44;4990702;28;20039;-89
2023/01/07 15:04:27;;;;;;;22.42;6.82;;;;;;;9.89;71.05;101622.00;5184745;23;20055;-88
2023/01/07 15:07:01;;;;;;;22.85;10.23;;;;;;;9.86;71.38;101624.97;4991901;28;20038;-88
2023/01/07 15:18:06;;;;;;;12.57;7.35;;;;;;;9.54;72.27;101610.78;5002187;23;20135;-87
2023/01/07 15:29:14;;;;;;;17.02;8.38;;;;;;;9.44;74.51;101622.28;4977125;28;20031;-87
2023/01/07 15:32:08;;;;;;;16.90;8.88;;;;;;;9.44;74.58;101635.72;5024828;23;20149;-90
2023/01/07 15:35:16;;;;;;;18.60;8.07;;;;;;;9.37;75.03;101631.00;5052745;23;20061;-89
2023/01/07 15:38:03;;;;;;;19.10;8.80;;;;;;;9.26;75.23;101626.53;5033819;23;20071;-89
2023/01/07 15:40:29;;;;;;;12.73;8.05;;;;;;;9.14;75.46;101625.72;5105064;23;20061;-90
2023/01/07 15:43:08;;;;;;;15.07;7.43;;;;;;;9.16;76.63;101650.59;5060772;23;20137;-88
2023/01/07 15:45:48;;;;;;;17.90;8.07;;;;;;;9.12;76.22;101634.88;5013218;28;20041;-88